sensor_id;sensor_type;location;lat;lon;timestamp;temperature;humidity
1524;DHT22;755;53.658;10.118;2022-09-29T00:03:03;6.30;99.90
1524;DHT22;755;53.658;10.118;2022-09-29T00:13:07;6.20;99.90
1524;DHT22;755;53.658;10.118;2022-09-29T00:23:22;6.00;99.90
1524;DHT22;755;53.658;10.118;2022-09-29T00:33:27;6.00;99.90
1524;DHT22;755;53.658;10.118;2022-09-29T00:43:51;6.00;99.90
1524;DHT22;755;53.658;10.118;2022-09-29T00:53:56;5.80;99.90
1524;DHT22;755;53.658;10.118;2022-09-29T01:04:02;5.90;99.90
1524;DHT22;755;53.658;10.118;2022-09-29T01:14:08;5.80;99.90
1524;DHT22;755;53.658;10.118;2022-09-29T01:24:47;5.70;99.90
1524;DHT22;755;53.658;10.118;2022-09-29T01:35:02;5.60;99.90
1524;DHT22;755;53.658;10.118;2022-09-29T01:45:13;5.60;99.90
1524;DHT22;755;53.658;10.118;2022-09-29T01:55:25;5.50;99.90
1524;DHT22;755;53.658;10.118;2022-09-29T02:05:32;5.50;99.90
1524;DHT22;755;53.658;10.118;2022-09-29T02:15:38;5.40;99.90
1524;DHT22;755;53.658;10.118;2022-09-29T02:25:46;5.40;99.90
1524;DHT22;755;53.658;10.118;2022-09-29T02:35:58;5.30;99.90
1524;DHT22;755;53.658;10.118;2022-09-29T02:46:13;5.30;99.90
1524;DHT22;755;53.658;10.118;2022-09-29T02:56:28;5.20;99.90
1524;DHT22;755;53.658;10.118;2022-09-29T03:06:35;5.20;99.90
1524;DHT22;755;53.658;10.118;2022-09-29T03:16:42;5.10;99.90
1524;DHT22;755;53.658;10.118;2022-09-29T03:26:44;5.10;99.90
1524;DHT22;755;53.658;10.118;2022-09-29T03:36:50;5.00;99.90
1524;DHT22;755;53.658;10.118;2022-09-29T03:46:52;5.00;99.90
1524;DHT22;755;53.658;10.118;2022-09-29T03:56:56;5.00;99.90
1524;DHT22;755;53.658;10.118;2022-09-29T04:06:57;5.00;99.90
1524;DHT22;755;53.658;10.118;2022-09-29T04:17:01;5.00;99.90
1524;DHT22;755;53.658;10.118;2022-09-29T04:27:03;5.00;99.90
1524;DHT22;755;53.658;10.118;2022-09-29T04:37:08;5.10;99.90
1524;DHT22;755;53.658;10.118;2022-09-29T04:47:11;5.10;99.90
1524;DHT22;755;53.658;10.118;2022-09-29T04:57:14;5.10;99.90
1524;DHT22;755;53.658;10.118;2022-09-29T05:07:16;5.10;99.90
1524;DHT22;755;53.658;10.118;2022-09-29T05:17:20;5.10;99.90
1524;DHT22;755;53.658;10.118;2022-09-29T05:27:22;5.10;99.90
1524;DHT22;755;53.658;10.118;2022-09-29T05:37:25;5.20;99.90
1524;DHT22;755;53.658;10.118;2022-09-29T05:47:27;5.20;99.90
1524;DHT22;755;53.658;10.118;2022-09-29T05:57:30;5.40;99.90
1524;DHT22;755;53.658;10.118;2022-09-29T06:07:32;5.50;99.90
1524;DHT22;755;53.658;10.118;2022-09-29T06:17:35;5.80;99.90
1524;DHT22;755;53.658;10.118;2022-09-29T06:27:37;6.00;99.90
1524;DHT22;755;53.658;10.118;2022-09-29T06:37:42;6.10;99.90
1524;DHT22;755;53.658;10.118;2022-09-29T06:47:46;6.30;99.90
1524;DHT22;755;53.658;10.118;2022-09-29T06:57:49;6.50;99.90
1524;DHT22;755;53.658;10.118;2022-09-29T07:07:51;6.70;99.90
1524;DHT22;755;53.658;10.118;2022-09-29T07:17:56;7.00;99.90
1524;DHT22;755;53.658;10.118;2022-09-29T07:27:59;7.20;99.90
1524;DHT22;755;53.658;10.118;2022-09-29T07:48:05;7.80;99.90
1524;DHT22;755;53.658;10.118;2022-09-29T07:58:07;8.00;99.90
1524;DHT22;755;53.658;10.118;2022-09-29T08:08:10;8.20;99.90
1524;DHT22;755;53.658;10.118;2022-09-29T08:18:12;8.50;99.90
1524;DHT22;755;53.658;10.118;2022-09-29T08:28:16;8.90;99.90
1524;DHT22;755;53.658;10.118;2022-09-29T08:38:18;9.20;99.90
1524;DHT22;755;53.658;10.118;2022-09-29T08:48:23;9.50;99.90
1524;DHT22;755;53.658;10.118;2022-09-29T08:58:26;9.80;99.90
1524;DHT22;755;53.658;10.118;2022-09-29T09:08:44;9.90;99.90
1524;DHT22;755;53.658;10.118;2022-09-29T09:29:38;10.20;99.90
1524;DHT22;755;53.658;10.118;2022-09-29T09:39:46;10.40;99.90
1524;DHT22;755;53.658;10.118;2022-09-29T09:49:53;10.80;99.90
1524;DHT22;755;53.658;10.118;2022-09-29T10:00:03;10.70;99.90
1524;DHT22;755;53.658;10.118;2022-09-29T10:10:15;10.90;99.90
1524;DHT22;755;53.658;10.118;2022-09-29T10:20:30;11.10;99.90
1524;DHT22;755;53.658;10.118;2022-09-29T10:30:34;11.30;99.90
1524;DHT22;755;53.658;10.118;2022-09-29T10:40:36;11.40;99.90
1524;DHT22;755;53.658;10.118;2022-09-29T10:50:57;11.50;99.90
1524;DHT22;755;53.658;10.118;2022-09-29T11:01:05;11.40;99.90
1524;DHT22;755;53.658;10.118;2022-09-29T11:11:19;11.30;99.90
1524;DHT22;755;53.658;10.118;2022-09-29T11:32:15;11.40;99.90
1524;DHT22;755;53.658;10.118;2022-09-29T11:42:39;11.60;99.90
1524;DHT22;755;53.658;10.118;2022-09-29T11:53:03;11.60;99.90
1524;DHT22;755;53.658;10.118;2022-09-29T12:03:22;11.60;99.90
1524;DHT22;755;53.658;10.118;2022-09-29T12:13:38;11.40;99.90
1524;DHT22;755;53.658;10.118;2022-09-29T12:23:43;11.50;99.90
1524;DHT22;755;53.658;10.118;2022-09-29T12:33:50;11.60;99.90
1524;DHT22;755;53.658;10.118;2022-09-29T12:43:58;11.70;99.90
1524;DHT22;755;53.658;10.118;2022-09-29T12:54:05;11.60;99.90
1524;DHT22;755;53.658;10.118;2022-09-29T13:04:52;11.60;99.90
1524;DHT22;755;53.658;10.118;2022-09-29T13:25:40;11.80;99.90
1524;DHT22;755;53.658;10.118;2022-09-29T13:35:47;11.70;99.90
1524;DHT22;755;53.658;10.118;2022-09-29T13:45:52;11.50;99.90
1524;DHT22;755;53.658;10.118;2022-09-29T13:55:55;11.30;99.90
1524;DHT22;755;53.658;10.118;2022-09-29T14:06:17;11.20;99.90
1524;DHT22;755;53.658;10.118;2022-09-29T14:16:38;11.10;99.90
1524;DHT22;755;53.658;10.118;2022-09-29T14:26:50;11.00;99.90
1524;DHT22;755;53.658;10.118;2022-09-29T14:36:55;11.10;99.90
1524;DHT22;755;53.658;10.118;2022-09-29T14:47:30;11.10;99.90
1524;DHT22;755;53.658;10.118;2022-09-29T14:58:06;11.00;99.90
1524;DHT22;755;53.658;10.118;2022-09-29T15:08:26;11.10;99.90
1524;DHT22;755;53.658;10.118;2022-09-29T15:18:45;11.10;99.90
1524;DHT22;755;53.658;10.118;2022-09-29T15:28:52;11.20;99.90
1524;DHT22;755;53.658;10.118;2022-09-29T15:38:59;11.20;99.90
1524;DHT22;755;53.658;10.118;2022-09-29T15:49:10;11.10;99.90
1524;DHT22;755;53.658;10.118;2022-09-29T15:59:17;11.10;99.90
1524;DHT22;755;53.658;10.118;2022-09-29T16:09:20;11.20;99.90
1524;DHT22;755;53.658;10.118;2022-09-29T16:19:26;11.20;99.90
1524;DHT22;755;53.658;10.118;2022-09-29T16:29:31;11.10;99.90
1524;DHT22;755;53.658;10.118;2022-09-29T16:39:41;10.90;99.90
1524;DHT22;755;53.658;10.118;2022-09-29T16:49:47;10.90;99.90
1524;DHT22;755;53.658;10.118;2022-09-29T16:59:51;10.90;99.90
1524;DHT22;755;53.658;10.118;2022-09-29T17:09:57;10.70;99.90
1524;DHT22;755;53.658;10.118;2022-09-29T17:19:59;10.70;99.90
1524;DHT22;755;53.658;10.118;2022-09-29T17:30:07;10.70;99.90
1524;DHT22;755;53.658;10.118;2022-09-29T17:40:19;10.70;99.90
1524;DHT22;755;53.658;10.118;2022-09-29T17:50:27;10.70;99.90
1524;DHT22;755;53.658;10.118;2022-09-29T18:00:31;10.70;99.90
1524;DHT22;755;53.658;10.118;2022-09-29T18:10:44;10.70;99.90
1524;DHT22;755;53.658;10.118;2022-09-29T18:20:49;10.70;99.90
1524;DHT22;755;53.658;10.118;2022-09-29T18:30:56;10.70;99.90
1524;DHT22;755;53.658;10.118;2022-09-29T18:41:02;10.70;99.90
1524;DHT22;755;53.658;10.118;2022-09-29T18:51:08;10.70;99.90
1524;DHT22;755;53.658;10.118;2022-09-29T19:01:15;10.70;99.90
1524;DHT22;755;53.658;10.118;2022-09-29T19:11:21;10.70;99.90
1524;DHT22;755;53.658;10.118;2022-09-29T19:21:23;10.60;99.90
1524;DHT22;755;53.658;10.118;2022-09-29T19:31:27;10.60;99.90
1524;DHT22;755;53.658;10.118;2022-09-29T19:41:29;10.60;99.90
1524;DHT22;755;53.658;10.118;2022-09-29T19:51:32;10.60;99.90
1524;DHT22;755;53.658;10.118;2022-09-29T20:01:52;10.60;99.90
1524;DHT22;755;53.658;10.118;2022-09-29T20:11:55;10.60;99.90
1524;DHT22;755;53.658;10.118;2022-09-29T20:21:57;10.50;99.90
1524;DHT22;755;53.658;10.118;2022-09-29T20:32:01;10.60;99.90
1524;DHT22;755;53.658;10.118;2022-09-29T20:42:03;10.50;99.90
1524;DHT22;755;53.658;10.118;2022-09-29T20:52:06;10.50;99.90
1524;DHT22;755;53.658;10.118;2022-09-29T21:02:08;10.50;99.90
1524;DHT22;755;53.658;10.118;2022-09-29T21:12:12;10.40;99.90
1524;DHT22;755;53.658;10.118;2022-09-29T21:22:14;10.50;99.90
1524;DHT22;755;53.658;10.118;2022-09-29T21:32:17;10.40;99.90
1524;DHT22;755;53.658;10.118;2022-09-29T21:42:19;10.40;99.90
1524;DHT22;755;53.658;10.118;2022-09-29T21:52:24;10.30;99.90
1524;DHT22;755;53.658;10.118;2022-09-29T22:02:26;10.30;99.90
1524;DHT22;755;53.658;10.118;2022-09-29T22:12:29;10.10;99.90
1524;DHT22;755;53.658;10.118;2022-09-29T22:22:31;10.00;99.90
1524;DHT22;755;53.658;10.118;2022-09-29T22:32:35;9.80;99.90
1524;DHT22;755;53.658;10.118;2022-09-29T22:42:37;9.70;99.90
1524;DHT22;755;53.658;10.118;2022-09-29T22:52:41;9.60;99.90
1524;DHT22;755;53.658;10.118;2022-09-29T23:02:44;9.40;99.90
1524;DHT22;755;53.658;10.118;2022-09-29T23:12:48;9.20;99.90
1524;DHT22;755;53.658;10.118;2022-09-29T23:22:52;9.10;99.90
1524;DHT22;755;53.658;10.118;2022-09-29T23:32:56;9.00;99.90
1524;DHT22;755;53.658;10.118;2022-09-29T23:42:58;8.90;99.90
1524;DHT22;755;53.658;10.118;2022-09-29T23:53:04;8.90;99.90
